createdAt,value
2018-11-05T00:00:55.092Z,45.06
2018-11-05T00:01:55.561Z,45.10
2018-11-05T00:02:56.032Z,45.12
2018-11-05T00:03:56.500Z,45.10
2018-11-05T00:04:56.971Z,45.04
2018-11-05T00:05:57.444Z,45.00
2018-11-05T00:06:57.958Z,44.96
2018-11-05T00:07:58.377Z,44.88
2018-11-05T00:08:58.845Z,44.84
2018-11-05T00:09:59.318Z,44.77
2018-11-05T00:10:59.790Z,44.71
2018-11-05T00:12:00.253Z,44.63
2018-11-05T00:13:00.723Z,44.54
2018-11-05T00:14:01.195Z,44.47
2018-11-05T00:15:01.671Z,44.38
2018-11-05T00:16:02.131Z,44.32
2018-11-05T00:17:02.598Z,44.21
2018-11-05T00:18:03.067Z,44.20
2018-11-05T00:19:03.540Z,44.15
2018-11-05T00:20:04.003Z,44.07
2018-11-05T00:21:04.474Z,43.98
2018-11-05T00:22:04.942Z,43.93
2018-11-05T00:23:05.412Z,43.89
2018-11-05T00:24:05.880Z,43.81
2018-11-05T00:25:06.350Z,43.78
2018-11-05T00:26:06.818Z,43.75
2018-11-05T00:27:07.288Z,43.74
2018-11-05T00:28:07.757Z,43.71
2018-11-05T00:29:08.228Z,43.68
2018-11-05T00:30:08.697Z,43.63
2018-11-05T00:31:09.167Z,43.60
2018-11-05T00:32:09.635Z,43.55
2018-11-05T00:33:10.105Z,43.51
2018-11-05T00:34:10.584Z,43.52
2018-11-05T00:35:11.048Z,43.50
2018-11-05T00:36:11.516Z,43.51
2018-11-05T00:37:11.988Z,43.50
2018-11-05T00:38:12.455Z,43.47
2018-11-05T00:39:12.927Z,43.45
2018-11-05T00:40:13.397Z,43.46
2018-11-05T00:41:13.868Z,43.44
2018-11-05T00:42:14.339Z,43.42
2018-11-05T00:43:14.808Z,43.44
2018-11-05T00:44:15.279Z,43.43
2018-11-05T00:45:15.749Z,43.48
2018-11-05T00:46:16.221Z,43.46
2018-11-05T00:47:16.743Z,43.46
2018-11-05T00:48:17.160Z,43.48
2018-11-05T00:49:17.636Z,43.50
2018-11-05T00:50:18.106Z,43.50
2018-11-05T00:51:18.576Z,43.55
2018-11-05T00:53:19.517Z,43.69
2018-11-05T00:54:19.989Z,43.76
2018-11-05T00:55:20.459Z,43.82
2018-11-05T00:56:20.941Z,43.86
2018-11-05T00:57:21.407Z,43.89
2018-11-05T00:58:21.873Z,43.92
2018-11-05T00:59:22.345Z,43.98
2018-11-05T01:00:22.815Z,44.05
2018-11-05T01:01:23.289Z,44.09
2018-11-05T01:02:23.812Z,44.11
2018-11-05T01:03:24.234Z,44.12
2018-11-05T01:04:24.703Z,44.10
2018-11-05T01:05:25.175Z,44.13
2018-11-05T01:06:25.648Z,44.11
2018-11-05T01:07:26.121Z,44.14
2018-11-05T01:08:26.592Z,44.14
2018-11-05T01:09:27.063Z,44.13
2018-11-05T01:10:27.539Z,44.11
2018-11-05T01:11:28.007Z,44.11
2018-11-05T01:12:28.482Z,44.08
2018-11-05T01:13:28.952Z,44.06
2018-11-05T01:14:29.423Z,44.05
2018-11-05T01:15:29.899Z,44.06
2018-11-05T01:16:30.368Z,44.11
2018-11-05T01:17:30.838Z,44.14
2018-11-05T01:18:31.313Z,44.07
2018-11-05T01:19:31.787Z,44.07
2018-11-05T01:20:32.258Z,44.06
2018-11-05T01:21:32.731Z,44.05
2018-11-05T01:22:33.205Z,44.08
2018-11-05T01:23:33.676Z,44.06
2018-11-05T01:24:34.146Z,44.08
2018-11-05T01:25:34.619Z,44.10
2018-11-05T01:26:35.090Z,44.12
2018-11-05T01:27:35.566Z,44.08
2018-11-05T01:28:36.037Z,44.04
2018-11-05T01:29:36.509Z,44.06
2018-11-05T01:30:36.982Z,44.05
2018-11-05T01:31:37.453Z,44.07
2018-11-05T01:32:37.930Z,44.08
2018-11-05T01:33:38.397Z,44.10
2018-11-05T01:34:38.874Z,44.09
2018-11-05T01:35:39.359Z,44.09
2018-11-05T01:36:39.819Z,44.10
2018-11-05T01:37:40.299Z,44.10
2018-11-05T01:38:40.815Z,44.12
2018-11-05T01:39:41.251Z,44.13
2018-11-05T01:40:41.707Z,44.13
2018-11-05T01:41:42.180Z,44.10
2018-11-05T01:42:42.651Z,44.13
2018-11-05T01:43:43.128Z,44.19
2018-11-05T01:44:43.598Z,44.21
2018-11-05T01:45:44.072Z,44.20
2018-11-05T01:46:44.543Z,44.26
2018-11-05T01:47:45.016Z,44.33
2018-11-05T01:48:45.486Z,44.39
2018-11-05T01:49:45.963Z,44.43
2018-11-05T01:50:46.434Z,44.47
2018-11-05T01:51:46.905Z,44.49
2018-11-05T01:52:47.428Z,44.54
2018-11-05T01:53:47.849Z,44.59
2018-11-05T01:54:48.320Z,44.66
2018-11-05T01:55:48.792Z,44.72
2018-11-05T01:56:49.264Z,44.79
2018-11-05T01:57:49.733Z,44.87
2018-11-05T01:58:50.206Z,44.91
2018-11-05T01:59:50.679Z,44.96
2018-11-05T02:00:51.149Z,45.06
2018-11-05T02:01:51.619Z,45.12
2018-11-05T02:02:52.090Z,45.16
2018-11-05T02:03:52.560Z,45.17
2018-11-05T02:04:53.030Z,45.20
2018-11-05T02:05:53.499Z,45.20
2018-11-05T02:06:53.968Z,45.21
2018-11-05T02:07:54.488Z,45.19
2018-11-05T02:08:54.906Z,45.16
2018-11-05T02:09:55.374Z,45.08
2018-11-05T02:10:55.852Z,45.03
2018-11-05T02:11:56.313Z,44.97
2018-11-05T02:12:56.833Z,44.91
2018-11-05T02:13:57.252Z,44.86
2018-11-05T02:14:57.723Z,44.82
2018-11-05T02:15:58.203Z,44.80
2018-11-05T02:16:58.659Z,44.76
2018-11-05T02:17:59.186Z,44.71
2018-11-05T02:18:59.600Z,44.62
2018-11-05T02:20:00.066Z,44.58
2018-11-05T02:21:00.531Z,44.55
2018-11-05T02:22:01.000Z,44.48
2018-11-05T02:23:01.469Z,44.40
2018-11-05T02:24:01.938Z,44.33
2018-11-05T02:25:02.415Z,44.28
2018-11-05T02:26:02.876Z,44.19
2018-11-05T02:27:03.391Z,44.14
2018-11-05T02:28:03.815Z,44.08
2018-11-05T02:29:04.283Z,44.00
2018-11-05T02:30:04.752Z,43.97
2018-11-05T02:31:05.221Z,43.92
2018-11-05T02:32:05.688Z,43.89
2018-11-05T02:33:06.208Z,43.87
2018-11-05T02:34:06.625Z,43.85
2018-11-05T02:35:07.135Z,43.83
2018-11-05T02:36:07.565Z,43.76
2018-11-05T02:37:08.037Z,43.75
2018-11-05T02:38:08.503Z,43.76
2018-11-05T02:39:08.976Z,43.75
2018-11-05T02:40:09.445Z,43.72
2018-11-05T02:41:09.914Z,43.72
2018-11-05T02:42:10.387Z,43.70
2018-11-05T02:43:10.854Z,43.68
2018-11-05T02:44:11.324Z,43.65
2018-11-05T02:45:11.794Z,43.69
2018-11-05T02:46:12.263Z,43.68
2018-11-05T02:47:12.734Z,43.68
2018-11-05T02:48:13.204Z,43.69
2018-11-05T02:49:13.674Z,43.69
2018-11-05T02:50:14.150Z,43.71
2018-11-05T02:51:14.615Z,43.76
2018-11-05T02:52:15.087Z,43.78
2018-11-05T02:53:15.554Z,43.79
2018-11-05T02:54:16.028Z,43.76
2018-11-05T02:55:16.496Z,43.74
2018-11-05T02:56:16.967Z,43.77
2018-11-05T02:57:17.436Z,43.78
2018-11-05T02:58:17.907Z,43.77
2018-11-05T02:59:18.379Z,43.78
2018-11-05T03:00:18.851Z,43.81
2018-11-05T03:01:19.323Z,43.79
2018-11-05T03:02:19.793Z,43.78
2018-11-05T03:03:20.401Z,43.74
2018-11-05T03:04:20.736Z,43.73
2018-11-05T03:05:21.204Z,43.74
2018-11-05T03:06:21.677Z,43.80
2018-11-05T03:07:22.153Z,43.76
2018-11-05T03:08:22.621Z,43.74
2018-11-05T03:09:23.088Z,43.78
2018-11-05T03:10:23.560Z,43.77
2018-11-05T03:11:24.033Z,43.76
2018-11-05T03:12:24.504Z,43.79
2018-11-05T03:13:24.974Z,43.85
2018-11-05T03:14:25.447Z,43.85
2018-11-05T03:15:25.920Z,43.88
2018-11-05T03:16:26.391Z,43.88
2018-11-05T03:17:26.859Z,43.90
2018-11-05T03:18:27.335Z,43.91
2018-11-05T03:19:27.803Z,43.91
2018-11-05T03:20:28.276Z,43.95
2018-11-05T03:21:28.748Z,43.92
2018-11-05T03:22:29.217Z,43.96
2018-11-05T03:23:29.691Z,44.00
2018-11-05T03:24:30.161Z,44.03
2018-11-05T03:25:30.633Z,44.04
2018-11-05T03:26:31.107Z,44.04
2018-11-05T03:27:31.577Z,44.08
2018-11-05T03:28:32.049Z,44.07
2018-11-05T03:29:32.524Z,44.08
2018-11-05T03:30:32.993Z,44.14
2018-11-05T03:31:33.466Z,44.13
2018-11-05T03:32:33.936Z,44.14
2018-11-05T03:33:34.407Z,44.09
2018-11-05T03:34:34.880Z,44.08
2018-11-05T03:35:35.397Z,44.10
2018-11-05T03:36:35.823Z,44.10
2018-11-05T03:37:36.301Z,44.12
2018-11-05T03:38:36.768Z,44.14
2018-11-05T03:39:37.239Z,44.15
2018-11-05T03:40:37.714Z,44.13
2018-11-05T03:41:38.184Z,44.16
2018-11-05T03:42:38.656Z,44.19
2018-11-05T03:43:39.144Z,44.20
2018-11-05T03:44:39.601Z,44.18
2018-11-05T03:45:40.110Z,44.18
2018-11-05T03:46:40.545Z,44.18
2018-11-05T03:47:41.107Z,44.18
2018-11-05T03:48:41.488Z,44.13
2018-11-05T03:49:41.997Z,44.20
2018-11-05T03:50:42.434Z,44.18
2018-11-05T03:51:42.906Z,44.16
2018-11-05T03:52:43.380Z,44.13
2018-11-05T03:53:43.849Z,44.14
2018-11-05T03:54:44.321Z,44.13
2018-11-05T03:55:44.950Z,44.15
2018-11-05T03:56:45.354Z,44.15
2018-11-05T03:57:45.739Z,44.17
2018-11-05T03:58:46.261Z,44.18
2018-11-05T03:59:46.685Z,44.18
2018-11-05T04:00:47.157Z,44.24
2018-11-05T04:01:47.625Z,44.25
2018-11-05T04:02:48.099Z,44.25
2018-11-05T04:03:48.573Z,44.20
2018-11-05T04:04:49.043Z,44.22
2018-11-05T04:05:49.516Z,44.28
2018-11-05T04:06:49.988Z,44.29
2018-11-05T04:07:50.459Z,44.36
2018-11-05T04:08:50.932Z,44.37
2018-11-05T04:09:51.403Z,44.34
2018-11-05T04:10:51.877Z,44.35
2018-11-05T04:11:52.351Z,44.36
2018-11-05T04:12:52.819Z,44.38
2018-11-05T04:13:53.292Z,44.41
2018-11-05T04:14:53.765Z,44.44
2018-11-05T04:15:54.245Z,44.47
2018-11-05T04:16:54.710Z,44.47
2018-11-05T04:17:55.183Z,44.47
2018-11-05T04:18:55.658Z,44.50
2018-11-05T04:19:56.126Z,44.51
2018-11-05T04:20:56.599Z,44.52
2018-11-05T04:21:57.073Z,44.52
2018-11-05T04:22:57.544Z,44.52
2018-11-05T04:23:58.014Z,44.53
2018-11-05T04:24:58.488Z,44.50
2018-11-05T04:25:58.963Z,44.52
2018-11-05T04:26:59.432Z,44.52
2018-11-05T04:27:59.991Z,44.53
2018-11-05T04:29:00.378Z,44.51
2018-11-05T04:30:00.850Z,44.55
2018-11-05T04:31:01.326Z,44.54
2018-11-05T04:32:01.794Z,44.56
2018-11-05T04:33:02.267Z,44.56
2018-11-05T04:34:02.739Z,44.54
2018-11-05T04:35:03.211Z,44.52
2018-11-05T04:36:03.682Z,44.54
2018-11-05T04:37:04.158Z,44.49
2018-11-05T04:38:04.627Z,44.52
2018-11-05T04:39:05.099Z,44.54
2018-11-05T04:40:05.573Z,44.51
2018-11-05T04:41:06.047Z,44.57
2018-11-05T04:42:06.517Z,44.57
2018-11-05T04:43:06.991Z,44.54
2018-11-05T04:44:07.464Z,44.53
2018-11-05T04:45:07.937Z,44.52
2018-11-05T04:46:08.410Z,44.52
2018-11-05T04:47:08.883Z,44.50
2018-11-05T04:48:09.357Z,44.50
2018-11-05T04:49:09.827Z,44.53
2018-11-05T04:50:10.302Z,44.56
2018-11-05T04:51:10.773Z,44.62
2018-11-05T04:52:11.245Z,44.64
2018-11-05T04:53:11.717Z,44.67
2018-11-05T04:54:12.188Z,44.73
2018-11-05T04:55:12.664Z,44.78
2018-11-05T04:56:13.139Z,44.83
2018-11-05T04:57:13.611Z,44.85
2018-11-05T04:58:14.079Z,44.87
2018-11-05T04:59:14.552Z,44.95
2018-11-05T05:00:15.023Z,45.02
2018-11-05T05:01:15.498Z,45.06
2018-11-05T05:02:15.967Z,45.11
2018-11-05T05:03:16.492Z,45.18
2018-11-05T05:04:16.910Z,45.25
2018-11-05T05:05:17.417Z,45.31
2018-11-05T05:06:17.852Z,45.35
2018-11-05T05:07:18.323Z,45.46
2018-11-05T05:08:18.792Z,45.53
2018-11-05T05:09:19.264Z,45.57
2018-11-05T05:10:19.731Z,45.61
2018-11-05T05:11:20.201Z,45.61
2018-11-05T05:12:20.671Z,45.65
2018-11-05T05:13:21.141Z,45.62
2018-11-05T05:14:21.609Z,45.58
2018-11-05T05:15:22.081Z,45.56
2018-11-05T05:16:22.581Z,45.50
2018-11-05T05:17:23.017Z,45.41
2018-11-05T05:18:23.486Z,45.36
2018-11-05T05:19:23.954Z,45.30
2018-11-05T05:20:24.427Z,45.25
2018-11-05T05:21:24.892Z,45.20
2018-11-05T05:22:25.403Z,45.16
2018-11-05T05:23:25.828Z,45.10
2018-11-05T05:24:26.297Z,45.02
2018-11-05T05:25:26.767Z,44.96
2018-11-05T05:26:27.234Z,44.93
2018-11-05T05:27:27.702Z,44.88
2018-11-05T05:28:28.174Z,44.82
2018-11-05T05:29:28.638Z,44.76
2018-11-05T05:30:29.108Z,44.73
2018-11-05T05:31:29.615Z,44.65
2018-11-05T05:32:30.055Z,44.57
2018-11-05T05:33:30.554Z,44.50
2018-11-05T05:34:30.984Z,44.43
2018-11-05T05:35:31.452Z,44.41
2018-11-05T05:36:31.919Z,44.37
2018-11-05T05:37:32.391Z,44.37
2018-11-05T05:38:32.856Z,44.32
2018-11-05T05:39:33.327Z,44.25
2018-11-05T05:40:33.799Z,44.22
2018-11-05T05:41:34.273Z,44.20
2018-11-05T05:42:34.733Z,44.14
2018-11-05T05:43:35.208Z,44.11
2018-11-05T05:44:35.673Z,44.10
2018-11-05T05:45:36.145Z,44.10
2018-11-05T05:46:36.612Z,44.08
2018-11-05T05:47:37.082Z,44.07
2018-11-05T05:48:37.552Z,44.08
2018-11-05T05:49:38.024Z,44.07
2018-11-05T05:50:38.491Z,44.10
2018-11-05T05:51:38.959Z,44.09
2018-11-05T05:52:39.430Z,44.07
2018-11-05T05:53:39.901Z,44.08
2018-11-05T05:54:40.371Z,44.10
2018-11-05T05:55:40.870Z,44.10
2018-11-05T05:56:41.312Z,44.08
2018-11-05T05:57:41.782Z,44.10
2018-11-05T05:58:42.253Z,44.14
2018-11-05T05:59:42.756Z,44.12
2018-11-05T06:00:43.191Z,44.13
2018-11-05T06:01:43.662Z,44.09
2018-11-05T06:02:44.134Z,44.05
2018-11-05T06:03:44.603Z,44.08
2018-11-05T06:04:45.075Z,44.10
2018-11-05T06:05:45.556Z,44.09
2018-11-05T06:06:46.021Z,44.08
2018-11-05T06:07:46.484Z,44.02
2018-11-05T06:08:46.956Z,44.07
2018-11-05T06:09:47.428Z,44.03
2018-11-05T06:10:47.898Z,44.06
2018-11-05T06:11:48.368Z,44.02
2018-11-05T06:12:48.840Z,44.04
2018-11-05T06:13:49.314Z,44.04
2018-11-05T06:14:49.780Z,44.05
2018-11-05T06:15:50.266Z,44.02
2018-11-05T06:16:50.724Z,44.06
2018-11-05T06:17:51.197Z,44.07
2018-11-05T06:18:51.664Z,44.07
2018-11-05T06:19:52.140Z,44.08
2018-11-05T06:20:52.610Z,44.08
2018-11-05T06:21:53.121Z,44.05
2018-11-05T06:22:53.551Z,44.06
2018-11-05T06:23:54.021Z,44.04
2018-11-05T06:24:54.495Z,44.04
2018-11-05T06:25:54.965Z,44.05
2018-11-05T06:26:55.442Z,44.08
2018-11-05T06:27:55.907Z,44.12
2018-11-05T06:28:56.382Z,44.12
2018-11-05T06:29:56.851Z,44.09
2018-11-05T06:30:57.331Z,44.08
2018-11-05T06:31:57.795Z,44.10
2018-11-05T06:32:58.267Z,44.09
2018-11-05T06:33:58.743Z,44.13
2018-11-05T06:34:59.211Z,44.17
2018-11-05T06:35:59.680Z,44.20
2018-11-05T06:37:00.152Z,44.22
2018-11-05T06:38:00.626Z,44.18
2018-11-05T06:39:01.096Z,44.18
2018-11-05T06:40:01.569Z,44.18
2018-11-05T06:41:02.113Z,44.13
2018-11-05T06:42:02.511Z,44.13
2018-11-05T06:43:02.982Z,44.13
2018-11-05T06:44:03.480Z,44.13
2018-11-05T06:45:03.949Z,44.10
2018-11-05T06:46:04.400Z,44.08
2018-11-05T06:47:04.872Z,44.10
2018-11-05T06:48:05.343Z,44.06
2018-11-05T06:49:05.885Z,44.06
2018-11-05T06:50:06.285Z,44.04
2018-11-05T06:51:06.757Z,44.05
2018-11-05T06:52:07.229Z,44.06
2018-11-05T06:53:07.703Z,44.06
2018-11-05T06:54:08.176Z,44.10
2018-11-05T06:55:08.652Z,44.09
2018-11-05T06:56:09.119Z,44.05
2018-11-05T06:57:09.591Z,44.04
2018-11-05T06:58:10.063Z,44.06
2018-11-05T06:59:10.535Z,44.04
2018-11-05T07:00:11.008Z,44.05
2018-11-05T07:01:11.486Z,44.04
2018-11-05T07:02:11.954Z,44.01
2018-11-05T07:03:12.422Z,44.06
2018-11-05T07:04:12.896Z,44.04
2018-11-05T07:05:13.368Z,44.05
2018-11-05T07:06:13.842Z,44.07
2018-11-05T07:07:14.312Z,44.08
2018-11-05T07:08:14.786Z,44.08
2018-11-05T07:09:15.258Z,44.08
2018-11-05T07:10:15.781Z,44.08
2018-11-05T07:11:16.239Z,44.07
2018-11-05T07:12:16.673Z,44.08
2018-11-05T07:13:17.147Z,44.06
2018-11-05T07:14:17.618Z,44.05
2018-11-05T07:15:18.092Z,44.04
2018-11-05T07:16:18.563Z,44.02
2018-11-05T07:17:19.035Z,44.07
2018-11-05T07:18:19.527Z,44.04
2018-11-05T07:19:20.132Z,44.03
2018-11-05T07:20:20.456Z,44.02
2018-11-05T07:21:20.925Z,44.00
2018-11-05T07:22:21.401Z,43.98
2018-11-05T07:23:21.869Z,43.95
2018-11-05T07:24:22.343Z,43.93
2018-11-05T07:25:22.816Z,43.85
2018-11-05T07:26:23.305Z,43.83
2018-11-05T07:27:23.789Z,43.78
2018-11-05T07:28:24.233Z,43.75
2018-11-05T07:29:24.707Z,43.73
2018-11-05T07:30:25.179Z,43.64
2018-11-05T07:31:25.650Z,43.60
2018-11-05T07:32:26.124Z,43.53
2018-11-05T07:33:26.676Z,43.45
2018-11-05T07:34:27.128Z,43.52
2018-11-05T07:35:27.543Z,43.50
2018-11-05T07:36:28.015Z,43.47
2018-11-05T07:37:28.486Z,43.49
2018-11-05T07:38:28.960Z,43.52
2018-11-05T07:39:29.433Z,43.56
2018-11-05T07:40:29.905Z,43.60
2018-11-05T07:41:30.376Z,43.64
2018-11-05T07:42:30.852Z,43.71
2018-11-05T07:43:31.323Z,43.73
2018-11-05T07:44:31.795Z,43.86
2018-11-05T07:45:32.270Z,44.02
2018-11-05T07:46:32.737Z,44.14
2018-11-05T07:47:33.210Z,44.23
2018-11-05T07:48:33.680Z,44.35
2018-11-05T07:49:34.151Z,44.44
2018-11-05T07:50:34.654Z,44.47
2018-11-05T07:51:35.094Z,44.49
2018-11-05T07:52:35.565Z,44.52
2018-11-05T07:53:36.035Z,44.58
2018-11-05T07:54:36.509Z,44.60
2018-11-05T07:55:36.977Z,44.63
2018-11-05T07:56:37.493Z,44.68
2018-11-05T07:57:37.916Z,44.69
2018-11-05T07:58:38.383Z,44.70
2018-11-05T07:59:38.852Z,44.73
2018-11-05T08:00:39.372Z,44.72
2018-11-05T08:01:39.790Z,44.59
2018-11-05T08:02:40.279Z,44.49
2018-11-05T08:03:40.751Z,44.41
2018-11-05T08:04:41.196Z,44.27
2018-11-05T08:05:41.665Z,44.16
2018-11-05T08:06:42.133Z,44.06
2018-11-05T08:07:42.602Z,43.96
2018-11-05T08:08:43.074Z,43.87
2018-11-05T08:09:43.541Z,43.80
2018-11-05T08:10:44.008Z,43.70
2018-11-05T08:11:44.476Z,43.62
2018-11-05T08:12:44.947Z,43.51
2018-11-05T08:13:45.415Z,43.40
2018-11-05T08:14:45.886Z,43.27
2018-11-05T08:15:46.353Z,43.22
2018-11-05T08:16:46.823Z,43.15
2018-11-05T08:17:47.292Z,43.11
2018-11-05T08:18:47.760Z,43.10
2018-11-05T08:19:48.230Z,43.07
2018-11-05T08:20:48.700Z,42.99
2018-11-05T08:21:49.168Z,42.93
2018-11-05T08:22:49.647Z,42.90
2018-11-05T08:23:50.106Z,42.80
2018-11-05T08:24:50.579Z,42.73
2018-11-05T08:25:51.048Z,42.65
2018-11-05T08:26:51.519Z,42.55
2018-11-05T08:27:51.987Z,42.51
2018-11-05T08:28:52.458Z,42.41
2018-11-05T08:29:52.928Z,42.37
2018-11-05T08:30:53.452Z,42.31
2018-11-05T08:31:53.872Z,42.22
2018-11-05T08:32:54.343Z,42.16
2018-11-05T08:33:54.810Z,42.12
2018-11-05T08:34:55.282Z,42.09
2018-11-05T08:35:55.752Z,42.08
2018-11-05T08:36:56.223Z,42.07
2018-11-05T08:37:56.700Z,42.04
2018-11-05T08:38:57.165Z,42.01
2018-11-05T08:39:57.637Z,41.98
2018-11-05T08:40:58.111Z,41.98
2018-11-05T08:41:58.581Z,41.95
2018-11-05T08:42:59.060Z,41.96
2018-11-05T08:43:59.524Z,41.96
2018-11-05T08:44:59.998Z,41.93
2018-11-05T08:46:00.469Z,41.93
2018-11-05T08:47:01.143Z,41.90
2018-11-05T08:48:01.414Z,41.90
2018-11-05T08:49:01.885Z,41.93
2018-11-05T08:50:02.424Z,41.89
2018-11-05T08:51:02.990Z,41.86
2018-11-05T08:52:03.302Z,41.82
2018-11-05T08:53:03.777Z,41.77
2018-11-05T08:54:04.327Z,41.75
2018-11-05T08:55:04.723Z,41.70
2018-11-05T08:56:05.244Z,41.71
2018-11-05T08:57:05.668Z,41.67
2018-11-05T08:58:06.148Z,41.64
2018-11-05T08:59:06.616Z,41.60
2018-11-05T09:00:07.088Z,41.55
2018-11-05T09:01:07.754Z,41.52
2018-11-05T09:02:08.038Z,41.55
2018-11-05T09:03:08.508Z,41.57
2018-11-05T09:04:08.981Z,41.61
2018-11-05T09:05:09.509Z,41.67
2018-11-05T09:06:09.980Z,41.74
2018-11-05T09:07:10.404Z,41.75
2018-11-05T09:08:10.874Z,41.77
2018-11-05T09:09:11.347Z,41.82
2018-11-05T09:10:11.895Z,41.90
2018-11-05T09:11:12.751Z,41.97
2018-11-05T09:12:12.851Z,42.03
2018-11-05T09:13:13.237Z,42.08
2018-11-05T09:14:13.711Z,42.12
2018-11-05T09:15:14.182Z,42.08
2018-11-05T09:16:14.713Z,42.05
2018-11-05T09:17:15.125Z,42.08
2018-11-05T09:18:15.597Z,42.10
2018-11-05T09:19:16.074Z,42.11
2018-11-05T09:20:16.538Z,42.11
2018-11-05T09:21:17.009Z,42.14
2018-11-05T09:22:17.482Z,42.17
2018-11-05T09:23:17.954Z,42.21
2018-11-05T09:24:18.422Z,42.21
2018-11-05T09:25:18.894Z,42.15
2018-11-05T09:26:19.364Z,42.17
2018-11-05T09:27:19.833Z,42.10
2018-11-05T09:28:20.432Z,42.04
2018-11-05T09:29:20.776Z,41.98
2018-11-05T09:30:21.244Z,41.90
2018-11-05T09:31:21.715Z,41.80
2018-11-05T09:32:22.186Z,41.70
2018-11-05T09:33:22.652Z,41.58
2018-11-05T09:34:23.124Z,41.46
2018-11-05T09:35:23.626Z,41.37
2018-11-05T09:36:24.065Z,41.29
2018-11-05T09:37:24.531Z,41.21
2018-11-05T09:38:25.002Z,41.11
2018-11-05T09:39:25.475Z,41.05
2018-11-05T09:40:25.944Z,40.96
2018-11-05T09:41:26.414Z,40.90
2018-11-05T09:42:26.882Z,40.77
2018-11-05T09:43:27.354Z,40.65
2018-11-05T09:44:27.824Z,40.58
2018-11-05T09:45:28.296Z,40.53
2018-11-05T09:46:28.767Z,40.44
2018-11-05T09:47:29.241Z,40.39
2018-11-05T09:48:29.708Z,40.34
2018-11-05T09:49:30.191Z,40.28
2018-11-05T09:50:30.656Z,40.26
2018-11-05T09:51:31.123Z,40.24
2018-11-05T09:52:31.596Z,40.17
2018-11-05T09:53:32.066Z,40.12
2018-11-05T09:54:32.540Z,40.10
2018-11-05T09:55:33.063Z,40.05
2018-11-05T09:56:33.484Z,40.01
2018-11-05T09:57:33.957Z,39.96
2018-11-05T09:58:34.427Z,39.91
2018-11-05T09:59:34.904Z,39.91
2018-11-05T10:00:35.374Z,39.86
2018-11-05T10:01:35.847Z,39.85
2018-11-05T10:02:36.353Z,39.82
2018-11-05T10:03:36.919Z,39.79
2018-11-05T10:04:37.445Z,39.76
2018-11-05T10:05:37.800Z,39.74
2018-11-05T10:06:38.218Z,39.71
2018-11-05T10:07:38.745Z,39.75
2018-11-05T10:08:39.167Z,39.84
2018-11-05T10:09:39.649Z,39.88
2018-11-05T10:10:40.170Z,39.86
2018-11-05T10:11:40.588Z,39.87
2018-11-05T10:12:41.060Z,39.86
2018-11-05T10:13:41.537Z,39.89
2018-11-05T10:14:42.008Z,39.88
2018-11-05T10:15:42.483Z,39.91
2018-11-05T10:16:42.955Z,39.93
2018-11-05T10:17:43.430Z,39.97
2018-11-05T10:18:43.904Z,40.02
2018-11-05T10:19:44.375Z,40.07
2018-11-05T10:20:44.849Z,40.11
2018-11-05T10:21:45.323Z,40.14
2018-11-05T10:22:45.796Z,40.18
2018-11-05T10:23:46.269Z,40.26
2018-11-05T10:24:46.868Z,40.29
2018-11-05T10:25:47.214Z,40.34
2018-11-05T10:26:47.687Z,40.35
2018-11-05T10:27:48.163Z,40.37
2018-11-05T10:28:48.635Z,40.38
2018-11-05T10:29:49.101Z,40.39
2018-11-05T10:30:49.584Z,40.41
2018-11-05T10:31:50.048Z,40.38
2018-11-05T10:32:50.539Z,40.36
2018-11-05T10:33:51.076Z,40.37
2018-11-05T10:34:51.462Z,40.40
2018-11-05T10:35:51.930Z,40.46
2018-11-05T10:36:52.402Z,40.54
2018-11-05T10:37:52.875Z,40.61
2018-11-05T10:38:53.344Z,40.64
2018-11-05T10:39:53.871Z,40.71
2018-11-05T10:40:54.282Z,40.79
2018-11-05T10:41:54.758Z,40.84
2018-11-05T10:42:55.224Z,40.81
2018-11-05T10:43:55.696Z,40.79
2018-11-05T10:44:56.165Z,40.74
2018-11-05T10:45:56.635Z,40.64
2018-11-05T10:46:57.105Z,40.60
2018-11-05T10:47:57.576Z,40.54
2018-11-05T10:48:58.045Z,40.52
2018-11-05T10:49:58.515Z,40.46
2018-11-05T10:50:59.002Z,40.44
2018-11-05T10:51:59.532Z,40.36
2018-11-05T10:52:59.925Z,40.33
2018-11-05T10:54:00.398Z,40.27
2018-11-05T10:55:00.871Z,40.21
2018-11-05T10:56:01.341Z,40.17
2018-11-05T10:57:01.872Z,40.10
2018-11-05T10:58:02.316Z,40.06
2018-11-05T10:59:02.754Z,39.95
2018-11-05T11:00:03.223Z,39.90
2018-11-05T11:01:03.694Z,39.84
2018-11-05T11:02:04.165Z,39.77
2018-11-05T11:03:04.637Z,39.71
2018-11-05T11:04:05.193Z,39.68
2018-11-05T11:05:05.585Z,39.88
2018-11-05T11:06:06.056Z,39.78
2018-11-05T11:07:06.527Z,39.64
2018-11-05T11:08:07.000Z,39.53
2018-11-05T11:09:07.472Z,39.53
2018-11-05T11:10:07.963Z,39.43
2018-11-05T11:11:08.419Z,39.44
2018-11-05T11:12:08.896Z,39.38
2018-11-05T11:13:09.364Z,39.36
2018-11-05T11:14:09.838Z,39.43
2018-11-05T11:15:10.329Z,39.38
2018-11-05T11:16:10.792Z,39.29
2018-11-05T11:17:11.257Z,39.24
2018-11-05T11:18:11.732Z,39.23
2018-11-05T11:19:12.205Z,39.24
2018-11-05T11:20:12.682Z,39.25
2018-11-05T11:21:13.150Z,39.32
2018-11-05T11:22:13.722Z,39.36
2018-11-05T11:23:14.097Z,39.38
2018-11-05T11:24:14.572Z,39.39
2018-11-05T11:25:15.044Z,39.42
2018-11-05T11:26:15.518Z,39.43
2018-11-05T11:27:15.991Z,39.39
2018-11-05T11:28:16.549Z,39.42
2018-11-05T11:29:17.101Z,39.45
2018-11-05T11:30:17.407Z,39.48
2018-11-05T11:31:17.882Z,39.48
2018-11-05T11:32:18.353Z,39.44
2018-11-05T11:33:18.825Z,39.45
2018-11-05T11:34:19.296Z,39.47
2018-11-05T11:35:19.771Z,39.50
2018-11-05T11:36:20.244Z,39.50
2018-11-05T11:37:20.764Z,39.52
2018-11-05T11:38:21.185Z,39.48
2018-11-05T11:39:21.655Z,39.48
2018-11-05T11:40:22.127Z,39.49
2018-11-05T11:41:22.597Z,39.54
2018-11-05T11:42:23.113Z,39.51
2018-11-05T11:43:23.540Z,39.53
2018-11-05T11:44:24.053Z,39.59
2018-11-05T11:45:24.483Z,39.69
2018-11-05T11:46:24.955Z,39.78
2018-11-05T11:47:25.427Z,39.84
2018-11-05T11:48:25.894Z,39.88
2018-11-05T11:49:26.366Z,39.88
2018-11-05T11:50:26.837Z,39.88
2018-11-05T11:51:27.305Z,39.90
2018-11-05T11:52:27.807Z,39.93
2018-11-05T11:53:28.395Z,39.97
2018-11-05T11:54:28.720Z,39.98
2018-11-05T11:55:29.188Z,40.02
2018-11-05T11:56:29.661Z,40.05
2018-11-05T11:57:30.128Z,40.01
2018-11-05T11:58:30.600Z,39.98
2018-11-05T11:59:31.074Z,39.94
2018-11-05T12:00:31.543Z,39.93
2018-11-05T12:01:32.014Z,39.94
2018-11-05T12:02:32.483Z,39.93
2018-11-05T12:03:32.956Z,39.93
2018-11-05T12:04:33.428Z,39.88
2018-11-05T12:05:33.917Z,39.86
2018-11-05T12:06:34.372Z,39.87
2018-11-05T12:07:34.843Z,39.83
2018-11-05T12:08:35.316Z,39.82
2018-11-05T12:09:35.787Z,39.77
2018-11-05T12:10:36.258Z,39.76
2018-11-05T12:11:36.736Z,39.74
2018-11-05T12:12:37.207Z,39.70
2018-11-05T12:13:37.681Z,39.65
2018-11-05T12:14:38.303Z,39.60
2018-11-05T12:15:38.625Z,39.54
2018-11-05T12:16:39.099Z,39.48
2018-11-05T12:17:39.598Z,39.39
2018-11-05T12:18:40.046Z,39.32
2018-11-05T12:19:40.525Z,39.23
2018-11-05T12:20:41.033Z,39.14
2018-11-05T12:21:41.483Z,39.09
2018-11-05T12:22:41.945Z,39.12
2018-11-05T12:23:42.421Z,39.22
2018-11-05T12:24:42.900Z,39.28
2018-11-05T12:25:43.370Z,39.29
2018-11-05T12:26:43.863Z,39.23
2018-11-05T12:27:44.323Z,39.19
2018-11-05T12:28:44.797Z,39.19
2018-11-05T12:29:45.269Z,39.22
2018-11-05T12:30:45.743Z,39.23
2018-11-05T12:31:46.219Z,39.30
2018-11-05T12:32:46.692Z,39.34
2018-11-05T12:33:47.170Z,39.38
2018-11-05T12:34:47.649Z,39.39
2018-11-05T12:35:48.117Z,39.42
2018-11-05T12:36:48.590Z,39.46
2018-11-05T12:37:49.067Z,39.50
2018-11-05T12:38:49.600Z,39.47
2018-11-05T12:39:50.013Z,39.49
2018-11-05T12:40:50.486Z,39.54
2018-11-05T12:41:50.959Z,39.58
2018-11-05T12:42:51.432Z,39.63
2018-11-05T12:43:51.906Z,39.64
2018-11-05T12:44:52.392Z,39.68
2018-11-05T12:45:52.855Z,39.67
2018-11-05T12:46:53.325Z,39.67
2018-11-05T12:47:53.797Z,39.70
2018-11-05T12:48:54.271Z,39.72
2018-11-05T12:49:54.743Z,39.70
2018-11-05T12:50:55.220Z,39.67
2018-11-05T12:51:55.951Z,39.68
2018-11-05T12:52:56.161Z,39.68
2018-11-05T12:53:56.632Z,39.71
2018-11-05T12:54:57.105Z,39.71
2018-11-05T12:55:57.577Z,39.76
2018-11-05T12:56:58.052Z,39.75
2018-11-05T12:57:58.522Z,39.76
2018-11-05T12:58:58.994Z,39.76
2018-11-05T12:59:59.463Z,39.77